Time;durP1;ratioP1;P1;durP2;ratioP2;P2;SDS_P1;SDS_P2;PMS_P1;PMS_P2;Temp;Humidity;BMP_temperature;BMP_pressure;BME280_temperature;BME280_humidity;BME280_pressure;Samples;Min_cycle;Max_cycle;Signal;HPM_P1;HPM_P2
2021/03/17 00:00:38;;;;;;;8.30;1.25;;;;;;;7.89;65.58;102111.06;6275735;22;20022;-72
2021/03/17 00:03:03;;;;;;;10.65;2.45;;;;;;;7.86;66.45;102112.28;6308456;22;19999;-74
2021/03/17 00:05:34;;;;;;;12.75;2.92;;;;;;;7.85;66.38;102117.94;6306812;22;20021;-73
2021/03/17 00:07:59;;;;;;;7.82;2.03;;;;;;;7.82;66.48;102118.38;6306080;22;20014;-72
2021/03/17 00:10:28;;;;;;;6.35;1.95;;;;;;;7.80;65.96;102129.47;6303026;22;20443;-73
2021/03/17 00:12:56;;;;;;;6.28;1.58;;;;;;;7.82;66.37;102138.25;6310062;22;20007;-75
2021/03/17 00:15:33;;;;;;;6.93;1.38;;;;;;;7.85;67.01;102143.28;6282683;22;20026;-74
2021/03/17 00:17:59;;;;;;;5.55;1.50;;;;;;;7.85;67.35;102143.28;6302828;22;20420;-75
2021/03/17 00:20:26;;;;;;;15.93;2.78;;;;;;;7.85;66.79;102143.28;6305515;22;20024;-73
2021/03/17 00:22:52;;;;;;;10.55;1.70;;;;;;;7.96;67.17;102155.50;6277847;22;20451;-72
2021/03/17 00:25:20;;;;;;;8.50;1.95;;;;;;;8.10;66.81;102156.34;6307012;22;20430;-73
2021/03/17 00:27:46;;;;;;;8.07;2.55;;;;;;;8.26;67.07;102159.72;6271428;22;20064;-72
2021/03/17 00:30:12;;;;;;;17.48;2.70;;;;;;;8.38;67.18;102150.72;6307006;22;20090;-74
2021/03/17 00:32:37;;;;;;;7.40;2.80;;;;;;;8.56;66.57;102152.84;6302202;22;20148;-73
2021/03/17 00:35:03;;;;;;;16.02;3.35;;;;;;;8.68;66.50;102157.69;6302930;22;20003;-73
2021/03/17 00:37:29;;;;;;;13.60;2.20;;;;;;;8.78;65.91;102152.63;6303515;22;20003;-74
2021/03/17 00:39:54;;;;;;;5.43;2.08;;;;;;;8.89;65.69;102162.91;6301595;22;20049;-73
2021/03/17 00:42:20;;;;;;;16.42;2.30;;;;;;;8.95;65.93;102157.63;6307298;22;20338;-73
2021/03/17 00:44:45;;;;;;;7.43;1.75;;;;;;;9.02;65.59;102172.09;6309484;22;20055;-75
2021/03/17 00:47:11;;;;;;;7.82;2.00;;;;;;;9.07;65.42;102166.84;6304981;22;20003;-72
2021/03/17 00:49:36;;;;;;;9.15;2.30;;;;;;;9.14;65.08;102166.81;6284524;22;20017;-72
2021/03/17 00:52:02;;;;;;;10.00;2.47;;;;;;;9.17;65.71;102167.25;6299967;22;20007;-73
2021/03/17 00:54:27;;;;;;;10.52;2.65;;;;;;;9.22;65.51;102172.88;6274124;22;20003;-72
2021/03/17 00:56:55;;;;;;;7.15;1.98;;;;;;;9.27;65.50;102177.69;6309838;22;20006;-74
2021/03/17 00:59:21;;;;;;;9.02;1.70;;;;;;;9.32;64.88;102177.09;6277445;22;20380;-73
2021/03/17 01:01:46;;;;;;;6.03;1.45;;;;;;;9.37;64.60;102175.34;6306819;22;20030;-74
2021/03/17 01:04:12;;;;;;;4.35;1.38;;;;;;;9.40;64.81;102171.38;6279252;22;20019;-72
2021/03/17 01:06:37;;;;;;;3.00;0.98;;;;;;;9.48;65.16;102178.50;6282642;22;20091;-72
2021/03/17 01:09:04;;;;;;;10.23;2.83;;;;;;;9.50;65.16;102170.91;6307526;22;20333;-71
2021/03/17 01:11:29;;;;;;;6.57;1.65;;;;;;;9.53;64.70;102176.78;6280844;22;20037;-73
2021/03/17 01:13:55;;;;;;;8.30;1.65;;;;;;;9.55;64.04;102180.16;6256629;22;20011;-73
2021/03/17 01:16:21;;;;;;;11.25;1.25;;;;;;;9.59;64.16;102172.34;6300311;22;20080;-72
2021/03/17 01:18:46;;;;;;;9.30;2.13;;;;;;;9.57;64.15;102166.28;6307274;22;20307;-72
2021/03/17 01:21:12;;;;;;;6.13;2.10;;;;;;;9.60;64.92;102169.41;6258582;22;20064;-71
2021/03/17 01:23:37;;;;;;;9.55;2.33;;;;;;;9.53;64.06;102154.94;6310513;22;20003;-72
2021/03/17 01:26:06;;;;;;;9.98;2.55;;;;;;;9.53;64.39;102159.56;6304929;22;20027;-73
2021/03/17 01:28:31;;;;;;;9.00;2.08;;;;;;;9.52;64.33;102169.66;6252835;22;20337;-74
2021/03/17 01:30:59;;;;;;;8.45;2.17;;;;;;;9.37;63.89;102158.16;6309949;22;20074;-73
2021/03/17 01:33:30;;;;;;;14.02;2.95;;;;;;;9.41;64.06;102162.13;6251647;22;20011;-73
2021/03/17 01:35:57;;;;;;;10.35;2.97;;;;;;;9.49;64.57;102166.50;6282029;22;20007;-74
2021/03/17 01:38:23;;;;;;;7.90;2.20;;;;;;;9.51;64.25;102172.59;6306149;22;20003;-73
2021/03/17 01:40:51;;;;;;;6.22;2.00;;;;;;;9.51;64.64;102173.44;6308053;22;20043;-75
2021/03/17 01:43:17;;;;;;;12.68;3.58;;;;;;;9.50;63.68;102166.28;6305358;22;20045;-73
2021/03/17 01:45:43;;;;;;;6.65;1.98;;;;;;;9.53;64.57;102174.03;6311102;22;20014;-74
2021/03/17 01:48:10;;;;;;;8.07;2.20;;;;;;;9.51;64.02;102173.44;6312859;22;20303;-74
2021/03/17 01:50:38;;;;;;;16.30;2.95;;;;;;;9.47;64.42;102174.09;6311539;22;19999;-75
2021/03/17 01:53:14;;;;;;;7.13;1.55;;;;;;;9.47;64.15;102172.19;6311856;22;20027;-75
2021/03/17 01:55:40;;;;;;;13.18;3.63;;;;;;;9.50;64.25;102171.75;6306268;22;20003;-74
2021/03/17 01:58:07;;;;;;;10.82;2.67;;;;;;;9.47;64.35;102182.28;6309393;22;20010;-74
2021/03/17 02:00:33;;;;;;;12.30;3.33;;;;;;;9.50;64.07;102193.59;6308382;22;19999;-71
2021/03/17 02:03:00;;;;;;;12.50;3.38;;;;;;;9.48;64.92;102195.72;6311211;22;20006;-71
2021/03/17 02:05:31;;;;;;;21.77;2.83;;;;;;;9.49;64.25;102191.09;6280539;22;19999;-71
2021/03/17 02:08:01;;;;;;;16.42;2.70;;;;;;;9.49;64.22;102185.63;6309875;22;20034;-72
2021/03/17 02:10:27;;;;;;;15.02;3.58;;;;;;;9.47;64.58;102185.00;6309106;22;20003;-72
2021/03/17 02:13:09;;;;;;;6.07;2.38;;;;;;;9.45;64.57;102182.50;6285395;22;20129;-71
2021/03/17 02:15:59;;;;;;;7.40;1.92;;;;;;;9.39;64.44;102194.28;6305187;22;20003;-73
2021/03/17 02:18:52;;;;;;;13.13;2.35;;;;;;;9.31;65.02;102194.50;6311103;22;20037;-72
2021/03/17 02:21:23;;;;;;;10.70;2.17;;;;;;;9.18;65.08;102193.47;6314805;22;20003;-75
2021/03/17 02:24:01;;;;;;;18.45;2.90;;;;;;;9.11;65.08;102183.63;6314979;22;20333;-75
2021/03/17 02:26:52;;;;;;;11.35;2.90;;;;;;;9.00;64.36;102185.13;6316344;22;20010;-75
2021/03/17 02:29:43;;;;;;;4.43;2.17;;;;;;;8.87;65.44;102181.34;6313789;22;20590;-75
2021/03/17 02:32:28;;;;;;;6.53;2.50;;;;;;;8.68;65.41;102180.31;6313699;22;20087;-75
2021/03/17 02:34:58;;;;;;;7.55;2.38;;;;;;;8.63;65.14;102187.44;6309085;22;20015;-73
2021/03/17 02:37:24;;;;;;;7.90;2.47;;;;;;;8.52;65.84;102187.03;6311976;22;20022;-74
2021/03/17 02:40:07;;;;;;;6.85;2.20;;;;;;;8.41;66.27;102190.38;6311964;22;20010;-75
2021/03/17 02:42:43;;;;;;;5.35;1.70;;;;;;;8.33;65.93;102193.28;6283642;22;19995;-75
2021/03/17 02:45:16;;;;;;;2.85;1.40;;;;;;;8.21;66.55;102191.16;6315292;22;20026;-75
2021/03/17 02:48:04;;;;;;;3.65;1.88;;;;;;;8.17;66.60;102189.06;6309677;22;20326;-75
2021/03/17 02:50:33;;;;;;;4.40;1.13;;;;;;;8.08;66.77;102185.69;6307169;22;20006;-73
2021/03/17 02:53:01;;;;;;;3.67;1.33;;;;;;;8.02;66.45;102181.91;6286655;22;19999;-75
2021/03/17 02:55:31;;;;;;;13.93;2.70;;;;;;;7.99;67.68;102186.94;6313722;22;20413;-75
2021/03/17 02:57:58;;;;;;;11.18;3.58;;;;;;;7.99;67.82;102185.03;6310551;22;20051;-75
2021/03/17 03:00:27;;;;;;;9.43;2.60;;;;;;;7.93;67.02;102166.81;6282729;22;20023;-74
2021/03/17 03:02:53;;;;;;;5.80;1.65;;;;;;;7.85;67.29;102165.09;6311831;22;20003;-75
2021/03/17 03:05:19;;;;;;;5.13;1.80;;;;;;;7.82;67.61;102168.22;6310204;22;20063;-75
2021/03/17 03:07:48;;;;;;;2.92;1.65;;;;;;;7.77;67.24;102168.00;6283458;22;19999;-74
2021/03/17 03:10:16;;;;;;;11.02;2.88;;;;;;;7.71;68.08;102171.56;6309597;22;19999;-75
2021/03/17 03:12:42;;;;;;;8.48;3.38;;;;;;;7.66;68.31;102182.22;6285495;22;20003;-74
2021/03/17 03:15:10;;;;;;;10.45;4.10;;;;;;;7.59;68.42;102181.34;6309886;22;20003;-76
2021/03/17 03:17:37;;;;;;;12.27;4.25;;;;;;;7.51;69.24;102179.66;6284483;22;20070;-72
2021/03/17 03:20:07;;;;;;;11.43;4.93;;;;;;;7.41;69.42;102179.19;6308238;22;19999;-76
2021/03/17 03:22:34;;;;;;;10.88;4.20;;;;;;;7.36;68.93;102173.47;6282096;22;20007;-73
2021/03/17 03:25:00;;;;;;;6.82;4.60;;;;;;;7.26;70.25;102180.16;6306896;22;20035;-77
2021/03/17 03:27:27;;;;;;;18.75;6.05;;;;;;;7.20;70.34;102178.25;6310126;22;20017;-76
2021/03/17 03:29:55;;;;;;;13.77;4.75;;;;;;;7.16;69.85;102185.94;6281865;22;19999;-75
2021/03/17 03:32:20;;;;;;;16.30;5.30;;;;;;;7.12;70.69;102187.38;6282741;22;20019;-75
2021/03/17 03:34:46;;;;;;;24.90;6.55;;;;;;;7.07;70.84;102186.31;6310039;22;20023;-75
2021/03/17 03:37:14;;;;;;;24.05;6.32;;;;;;;7.04;71.48;102183.97;6285141;22;20011;-76
2021/03/17 03:39:39;;;;;;;17.88;4.95;;;;;;;6.99;71.10;102193.59;6307683;22;20374;-77
2021/03/17 03:42:05;;;;;;;9.73;5.22;;;;;;;6.92;72.07;102180.97;6314095;22;20033;-76
2021/03/17 03:44:31;;;;;;;7.45;4.55;;;;;;;6.89;71.34;102184.94;6312226;22;20007;-75
2021/03/17 03:46:57;;;;;;;15.80;5.68;;;;;;;6.85;72.33;102185.53;6279327;22;20011;-75
2021/03/17 03:49:23;;;;;;;15.95;5.80;;;;;;;6.82;72.65;102181.34;6284715;22;20002;-74
2021/03/17 03:51:58;;;;;;;26.05;6.18;;;;;;;6.79;nan;102190.72;6284496;22;20027;-74
2021/03/17 03:54:42;;;;;;;;;;;;;;;6.79;72.60;102198.88;6313294;22;20070;-74
2021/03/17 03:57:23;;;;;;;25.88;6.03;;;;;;;6.69;72.58;102182.06;6312579;22;19902;-74
2021/03/17 03:59:53;;;;;;;13.80;4.80;;;;;;;6.65;72.97;102188.94;6311788;22;20022;-73
2021/03/17 04:02:26;;;;;;;23.13;5.20;;;;;;;6.61;72.76;102190.34;6311065;22;20007;-74
2021/03/17 04:04:55;;;;;;;9.70;4.68;;;;;;;6.57;72.71;102189.06;6311813;22;20003;-74
2021/03/17 04:07:22;;;;;;;19.70;4.63;;;;;;;6.51;72.87;102184.41;6305794;22;20018;-75
2021/03/17 04:09:51;;;;;;;10.75;3.83;;;;;;;6.51;73.12;102195.28;6309998;22;20022;-75
2021/03/17 04:12:21;;;;;;;11.88;3.65;;;;;;;6.49;73.50;102197.38;6275987;22;20003;-74
2021/03/17 04:14:50;;;;;;;16.52;5.22;;;;;;;6.44;73.26;102190.66;6280556;22;19999;-74
2021/03/17 04:17:30;;;;;;;10.20;3.90;;;;;;;6.43;73.39;102199.81;6310920;22;20022;-74
2021/03/17 04:20:00;;;;;;;9.65;2.97;;;;;;;6.37;73.40;102194.34;6285739;22;20026;-75
2021/03/17 04:22:30;;;;;;;6.38;3.40;;;;;;;6.33;72.91;102202.03;6286524;22;19999;-75
2021/03/17 04:24:58;;;;;;;8.52;3.63;;;;;;;6.28;73.71;102193.63;6315560;22;20082;-75
2021/03/17 04:27:27;;;;;;;10.30;3.67;;;;;;;6.24;73.17;102195.06;6314101;22;20007;-75
2021/03/17 04:29:53;;;;;;;17.10;3.80;;;;;;;6.23;73.33;102209.66;6309329;22;20010;-76
2021/03/17 04:32:20;;;;;;;8.82;4.20;;;;;;;6.17;73.75;102194.13;6313406;22;20007;-74
2021/03/17 04:34:47;;;;;;;16.75;4.45;;;;;;;6.19;74.26;102197.50;6285064;22;20094;-74
2021/03/17 04:37:14;;;;;;;20.13;4.25;;;;;;;6.17;73.67;102197.69;6311399;22;19999;-74
2021/03/17 04:39:40;;;;;;;25.25;5.18;;;;;;;6.17;74.29;102196.84;6312705;22;20058;-74
2021/03/17 04:42:06;;;;;;;14.80;3.97;;;;;;;6.14;74.58;102194.53;6312213;22;20014;-74
2021/03/17 04:44:33;;;;;;;19.63;4.53;;;;;;;6.15;74.32;102197.06;6286481;22;20007;-73
2021/03/17 04:47:01;;;;;;;9.90;3.53;;;;;;;6.17;74.67;102188.72;6313253;22;20099;-74
2021/03/17 04:49:27;;;;;;;11.18;3.15;;;;;;;6.06;74.60;102177.31;6284883;22;20318;-75
2021/03/17 04:51:55;;;;;;;11.38;2.40;;;;;;;6.11;75.09;102196.59;6304847;22;19999;-75
2021/03/17 04:54:21;;;;;;;21.35;3.67;;;;;;;6.10;74.91;102189.50;6312237;22;20031;-75
2021/03/17 04:56:47;;;;;;;10.70;3.35;;;;;;;6.05;74.86;102186.50;6311161;22;20425;-73
2021/03/17 04:59:18;;;;;;;19.95;3.28;;;;;;;6.04;74.67;102195.66;6309968;22;20020;-75
2021/03/17 05:01:44;;;;;;;8.05;2.03;;;;;;;6.02;74.55;102199.63;6313104;22;20093;-74
2021/03/17 05:04:12;;;;;;;5.28;2.63;;;;;;;6.01;74.71;102206.91;6305819;22;20031;-74
2021/03/17 05:06:41;;;;;;;7.95;1.77;;;;;;;5.98;74.23;102201.88;6283734;22;20003;-75
2021/03/17 05:09:08;;;;;;;11.38;1.83;;;;;;;5.95;74.75;102202.22;6304003;22;20003;-75
2021/03/17 05:11:37;;;;;;;20.45;3.80;;;;;;;5.96;74.84;102193.06;6316164;22;20003;-73
2021/03/17 05:14:06;;;;;;;10.48;3.00;;;;;;;5.95;74.55;102194.09;6310104;22;20003;-74
2021/03/17 05:16:32;;;;;;;15.73;2.67;;;;;;;5.96;74.73;102203.91;6285508;22;20317;-74
2021/03/17 05:18:59;;;;;;;19.67;3.60;;;;;;;5.95;75.11;102202.22;6305362;22;20050;-75
2021/03/17 05:21:27;;;;;;;28.20;4.13;;;;;;;5.94;75.25;102205.97;6301146;22;20330;-75
2021/03/17 05:23:52;;;;;;;11.60;2.10;;;;;;;5.93;74.76;102216.00;6284251;22;20007;-74
2021/03/17 05:26:18;;;;;;;23.38;3.80;;;;;;;5.92;75.13;102221.63;6304842;22;20082;-75
2021/03/17 05:28:45;;;;;;;23.95;3.22;;;;;;;5.87;74.97;102221.34;6284110;22;20418;-73
2021/03/17 05:31:11;;;;;;;24.50;3.55;;;;;;;5.81;74.94;102222.09;6274838;22;20026;-73
2021/03/17 05:33:37;;;;;;;11.82;3.60;;;;;;;5.77;75.49;102227.91;6311090;22;20082;-75
2021/03/17 05:36:03;;;;;;;23.85;4.00;;;;;;;5.71;75.48;102216.97;6310644;22;20007;-75
2021/03/17 05:38:28;;;;;;;31.65;3.92;;;;;;;5.66;76.01;102214.81;6282732;22;20043;-74
2021/03/17 05:40:56;;;;;;;17.48;3.50;;;;;;;5.66;75.85;102217.53;6256984;22;20388;-73
2021/03/17 05:43:25;;;;;;;14.85;2.75;;;;;;;5.60;75.75;102211.00;6308988;22;20702;-74
2021/03/17 05:45:51;;;;;;;10.50;2.85;;;;;;;5.53;75.36;102218.19;6309766;22;20003;-74
2021/03/17 05:48:18;;;;;;;14.93;3.28;;;;;;;5.50;75.92;102228.59;6302338;22;20126;-73
2021/03/17 05:50:44;;;;;;;15.05;2.72;;;;;;;5.45;75.62;102225.59;6280572;22;20041;-73
2021/03/17 05:53:09;;;;;;;14.48;3.00;;;;;;;5.40;76.37;102220.75;6284601;22;20368;-74
2021/03/17 05:55:39;;;;;;;20.85;2.38;;;;;;;5.35;76.57;102218.59;6311886;22;20007;-74
2021/03/17 05:58:05;;;;;;;14.57;3.00;;;;;;;5.33;76.36;102214.38;6311646;22;20044;-72
2021/03/17 06:00:31;;;;;;;17.13;3.35;;;;;;;5.35;76.52;102215.88;6274856;22;20055;-74
2021/03/17 06:02:58;;;;;;;16.05;3.60;;;;;;;5.33;76.77;102203.53;6247482;23;20004;-72
2021/03/17 06:05:25;;;;;;;15.90;2.13;;;;;;;5.28;76.60;102195.13;6247436;22;20004;-73
2021/03/17 06:07:57;;;;;;;12.80;2.55;;;;;;;5.30;76.32;102191.22;6242709;22;20004;-74
2021/03/17 06:10:26;;;;;;;22.02;3.35;;;;;;;5.24;76.51;102192.78;6247117;23;20012;-72
2021/03/17 06:13:07;;;;;;;8.85;2.35;;;;;;;5.26;76.79;102187.19;6248437;22;20007;-74
2021/03/17 06:15:34;;;;;;;12.05;2.33;;;;;;;5.17;76.32;102170.16;6249300;23;20087;-74
2021/03/17 06:18:07;;;;;;;3.47;1.30;;;;;;;5.17;76.13;102158.44;6243698;22;20071;-73
2021/03/17 06:20:32;;;;;;;8.77;2.08;;;;;;;5.20;76.64;102171.66;6246844;22;20004;-74
2021/03/17 06:23:01;;;;;;;17.00;3.45;;;;;;;5.15;76.71;102176.78;6244202;23;20035;-74
2021/03/17 06:25:27;;;;;;;10.65;2.38;;;;;;;5.18;76.78;102171.00;6249900;23;20727;-74
2021/03/17 06:27:53;;;;;;;6.78;3.13;;;;;;;5.11;76.41;102168.19;6250231;23;20012;-73
2021/03/17 06:30:19;;;;;;;19.67;3.70;;;;;;;5.09;76.76;102180.25;6245815;22;20042;-73
2021/03/17 06:32:45;;;;;;;13.55;2.95;;;;;;;5.07;76.58;102178.56;6245035;22;20035;-72
2021/03/17 06:35:22;;;;;;;14.30;3.03;;;;;;;5.06;76.96;102187.72;6244529;23;20011;-75
2021/03/17 06:37:49;;;;;;;21.65;3.10;;;;;;;5.02;77.19;102197.28;6248598;22;20018;-73
2021/03/17 06:40:24;;;;;;;15.55;2.65;;;;;;;5.04;77.37;102206.06;6245085;23;20005;-75
2021/03/17 06:42:50;;;;;;;16.77;3.92;;;;;;;5.05;77.67;102207.75;6244078;23;20012;-74
2021/03/17 06:45:29;;;;;;;18.65;3.90;;;;;;;5.09;77.59;102200.06;6247154;23;20158;-74
2021/03/17 06:47:54;;;;;;;18.10;2.83;;;;;;;5.12;77.80;102191.56;6219918;23;20031;-73
2021/03/17 06:50:28;;;;;;;33.90;5.05;;;;;;;5.04;77.33;102189.78;6247585;23;20032;-72
2021/03/17 06:52:53;;;;;;;16.20;3.15;;;;;;;5.22;77.93;102202.13;6248518;22;20007;-73
2021/03/17 06:55:21;;;;;;;12.05;1.85;;;;;;;5.27;77.63;102196.16;6246068;23;20339;-74
2021/03/17 06:57:50;;;;;;;15.95;2.70;;;;;;;5.31;77.54;102195.59;6250025;22;20000;-73
2021/03/17 07:00:35;;;;;;;13.32;2.90;;;;;;;5.39;77.37;102181.94;6298501;22;20037;-75
2021/03/17 07:03:09;;;;;;;15.05;4.32;;;;;;;5.43;77.27;102187.81;6283379;22;19999;-75
2021/03/17 07:05:38;;;;;;;8.80;3.03;;;;;;;5.53;76.98;102182.09;6309395;22;20010;-71
2021/03/17 07:08:09;;;;;;;8.52;2.63;;;;;;;5.60;77.40;102193.88;6305404;22;20236;-76
2021/03/17 07:10:40;;;;;;;9.30;2.78;;;;;;;5.69;76.74;102192.72;6311581;22;20035;-72
2021/03/17 07:13:08;;;;;;;16.27;2.50;;;;;;;5.77;76.71;102195.34;6305797;22;19999;-75
2021/03/17 07:15:35;;;;;;;20.48;2.60;;;;;;;5.88;77.09;102194.00;6286952;22;20003;-75
2021/03/17 07:18:26;;;;;;;12.40;3.08;;;;;;;6.04;76.82;102205.69;6283241;22;20006;-74
2021/03/17 07:20:59;;;;;;;15.55;3.20;;;;;;;6.17;76.37;102207.72;6286124;22;20461;-71
2021/03/17 07:23:36;;;;;;;21.23;2.30;;;;;;;6.33;76.57;102198.47;6310216;22;20006;-74
2021/03/17 07:26:15;;;;;;;10.07;2.92;;;;;;;6.55;76.64;102208.28;6287129;22;20006;-75
2021/03/17 07:28:53;;;;;;;17.92;4.47;;;;;;;6.68;75.51;102202.13;6309392;22;20014;-74
2021/03/17 07:31:22;;;;;;;27.52;3.75;;;;;;;6.82;75.80;102203.91;6312258;22;20023;-73
2021/03/17 07:33:51;;;;;;;20.75;3.55;;;;;;;6.96;74.78;102193.13;6276794;22;20029;-72
2021/03/17 07:36:37;;;;;;;14.20;2.40;;;;;;;7.11;74.34;102190.31;6300348;22;20375;-73
2021/03/17 07:39:09;;;;;;;19.58;2.80;;;;;;;7.20;74.67;102197.28;6277429;22;20003;-76
2021/03/17 07:41:43;;;;;;;21.95;3.38;;;;;;;7.26;73.53;102192.91;6285294;22;20007;-74
2021/03/17 07:44:12;;;;;;;29.70;3.92;;;;;;;7.33;73.08;102191.09;6311472;22;20006;-74
2021/03/17 07:46:42;;;;;;;21.30;3.08;;;;;;;7.47;73.14;102181.91;6312618;22;20002;-77
2021/03/17 07:49:08;;;;;;;25.73;4.25;;;;;;;7.57;73.48;102178.81;6308848;22;20015;-79
2021/03/17 07:51:40;;;;;;;26.00;3.97;;;;;;;7.69;72.62;102181.81;6310578;22;20037;-76
2021/03/17 07:54:07;;;;;;;11.45;2.90;;;;;;;7.82;71.47;102176.41;6283913;22;20022;-74
2021/03/17 07:56:36;;;;;;;16.63;3.35;;;;;;;8.03;71.43;102199.09;6282252;22;20002;-75
2021/03/17 07:59:02;;;;;;;13.10;3.55;;;;;;;8.04;71.30;102184.41;6258258;22;20027;-75
2021/03/17 08:01:29;;;;;;;11.48;2.92;;;;;;;8.14;71.13;102184.88;6309667;22;20053;-76
2021/03/17 08:03:56;;;;;;;15.77;3.05;;;;;;;8.26;70.53;102181.53;6310523;22;20030;-75
2021/03/17 08:06:21;;;;;;;11.38;3.40;;;;;;;8.24;70.42;102180.91;6282419;22;20003;-75
2021/03/17 08:08:48;;;;;;;15.25;2.67;;;;;;;8.34;69.69;102181.34;6312337;22;20318;-75
2021/03/17 08:11:17;;;;;;;8.05;2.70;;;;;;;8.38;70.83;102179.84;6258276;22;20014;-73
2021/03/17 08:13:46;;;;;;;24.23;3.72;;;;;;;8.48;69.68;102196.66;6307577;22;20000;-75
2021/03/17 08:16:18;;;;;;;15.98;2.50;;;;;;;8.57;69.57;102189.13;6280398;22;20007;-74
2021/03/17 08:18:44;;;;;;;18.83;3.47;;;;;;;8.55;69.28;102192.06;6305329;22;20002;-75
2021/03/17 08:21:10;;;;;;;16.63;2.97;;;;;;;8.62;69.56;102193.97;6276778;22;20038;-75
2021/03/17 08:23:48;;;;;;;19.85;3.22;;;;;;;8.69;69.17;102201.09;6286147;22;20039;-73
2021/03/17 08:26:47;;;;;;;10.68;2.78;;;;;;;8.77;68.56;102199.22;6312902;22;20007;-76
2021/03/17 08:29:14;;;;;;;15.73;2.22;;;;;;;8.85;69.29;102202.56;6283227;22;20007;-74
2021/03/17 08:31:40;;;;;;;18.40;2.53;;;;;;;8.98;68.80;102209.91;6278287;22;20007;-75
2021/03/17 08:34:17;;;;;;;7.70;1.52;;;;;;;9.20;68.29;102224.16;6284487;22;20372;-75
2021/03/17 08:37:02;;;;;;;7.57;2.20;;;;;;;9.41;67.96;102230.41;6306272;22;20092;-75
2021/03/17 08:39:32;;;;;;;6.07;1.55;;;;;;;9.60;67.81;102221.28;6307609;22;19991;-75
2021/03/17 08:42:02;;;;;;;9.77;1.98;;;;;;;9.90;67.65;102231.69;6308652;22;20083;-74
2021/03/17 08:44:33;;;;;;;13.25;2.20;;;;;;;10.11;66.96;102232.44;6311865;22;20004;-75
2021/03/17 08:47:15;;;;;;;6.45;1.85;;;;;;;10.46;66.42;102237.50;6309448;22;20011;-73
2021/03/17 08:49:43;;;;;;;4.97;1.13;;;;;;;10.63;66.15;102224.97;6311500;22;20010;-74
2021/03/17 08:52:30;;;;;;;8.45;1.77;;;;;;;11.07;65.74;102226.88;6316589;22;20007;-75
2021/03/17 08:55:00;;;;;;;7.35;1.83;;;;;;;11.25;64.44;102213.22;6318894;22;20003;-74
2021/03/17 08:57:51;;;;;;;15.55;2.85;;;;;;;11.60;63.66;102226.34;6310176;22;20093;-75
2021/03/17 09:00:43;;;;;;;7.50;3.15;;;;;;;11.79;62.01;102226.31;6287022;22;20019;-74
2021/03/17 09:03:10;;;;;;;4.93;1.95;;;;;;;11.85;61.51;102225.41;6280927;22;20011;-74
2021/03/17 09:05:36;;;;;;;5.22;1.92;;;;;;;12.04;60.92;102227.06;6278156;22;20011;-76
2021/03/17 09:08:07;;;;;;;5.22;1.60;;;;;;;12.28;60.33;102232.66;6304740;22;20003;-75
2021/03/17 09:10:47;;;;;;;10.73;2.20;;;;;;;12.51;60.16;102217.31;6280575;22;20010;-72
2021/03/17 09:13:16;;;;;;;4.95;1.80;;;;;;;12.64;58.53;102227.25;6310504;22;20019;-74
2021/03/17 09:15:50;;;;;;;6.00;1.27;;;;;;;12.75;58.49;102219.03;6310345;22;20000;-75
2021/03/17 09:18:23;;;;;;;6.05;2.08;;;;;;;12.94;58.19;102221.69;6313995;22;19995;-77
2021/03/17 09:20:49;;;;;;;15.00;3.05;;;;;;;13.05;55.49;102223.59;6289498;22;20003;-75
2021/03/17 09:23:20;;;;;;;5.28;2.08;;;;;;;13.03;55.87;102220.25;6314388;22;20086;-75
2021/03/17 09:25:57;;;;;;;3.92;1.20;;;;;;;13.16;56.24;102229.34;6312366;22;20007;-73
2021/03/17 09:28:28;;;;;;;8.40;1.77;;;;;;;13.26;56.23;102224.06;6315600;22;20083;-74
2021/03/17 09:31:17;;;;;;;3.28;1.55;;;;;;;13.45;56.09;102205.56;6317435;22;20003;-75
2021/03/17 09:34:01;;;;;;;3.65;1.85;;;;;;;13.70;55.05;102219.00;6286547;22;20006;-74
2021/03/17 09:36:28;;;;;;;7.07;2.30;;;;;;;13.73;54.50;102221.25;6313905;22;20003;-74
2021/03/17 09:38:55;;;;;;;10.07;2.30;;;;;;;13.80;53.38;102232.13;6311317;22;20011;-75
2021/03/17 09:41:28;;;;;;;7.90;1.90;;;;;;;13.64;53.06;102228.22;6312410;22;20030;-73
2021/03/17 09:43:56;;;;;;;6.95;2.05;;;;;;;13.64;53.67;102228.22;6309437;22;20006;-75
2021/03/17 09:46:43;;;;;;;5.93;1.67;;;;;;;13.72;53.72;102221.50;6283547;22;20006;-73
2021/03/17 09:49:16;;;;;;;6.93;1.95;;;;;;;13.78;53.54;102224.13;6310341;22;20015;-74
2021/03/17 09:51:50;;;;;;;5.88;2.63;;;;;;;13.82;53.67;102223.63;6312247;22;20008;-74
2021/03/17 09:54:24;;;;;;;6.97;2.08;;;;;;;13.89;53.58;102213.31;6310407;22;20007;-77
2021/03/17 09:57:00;;;;;;;9.32;2.05;;;;;;;13.88;53.07;102214.41;6312626;22;20010;-75
2021/03/17 09:59:25;;;;;;;5.10;1.80;;;;;;;13.98;52.36;102211.84;6309884;22;20080;-77
2021/03/17 10:02:02;;;;;;;6.32;1.63;;;;;;;14.13;51.72;102217.66;6313469;22;20073;-75
2021/03/17 10:04:42;;;;;;;4.50;2.20;;;;;;;14.22;51.42;102211.72;6286072;22;20008;-74
2021/03/17 10:07:12;;;;;;;6.00;1.67;;;;;;;14.44;51.68;102218.22;6319456;22;20418;-78
2021/03/17 10:09:38;;;;;;;8.60;2.13;;;;;;;14.54;50.85;102206.50;6337604;22;20430;-75
2021/03/17 10:12:19;;;;;;;3.42;1.30;;;;;;;14.61;50.95;102206.38;6263482;22;20011;-75
2021/03/17 10:14:52;;;;;;;3.90;1.20;;;;;;;14.72;50.84;102211.00;6308192;22;20090;-74
2021/03/17 10:17:22;;;;;;;11.77;2.67;;;;;;;14.59;49.77;102201.13;6312092;22;19999;-76
2021/03/17 10:19:53;;;;;;;4.85;1.50;;;;;;;14.58;49.75;102204.94;6307097;22;20127;-75
2021/03/17 10:22:20;;;;;;;3.15;1.63;;;;;;;14.64;50.50;102203.13;6313428;22;20003;-75
2021/03/17 10:24:51;;;;;;;5.82;1.50;;;;;;;14.67;50.33;102219.16;6313821;22;19999;-74
2021/03/17 10:27:22;;;;;;;5.30;1.80;;;;;;;14.59;49.17;102214.06;6310717;22;20049;-76
2021/03/17 10:29:50;;;;;;;4.18;1.65;;;;;;;14.56;49.87;102220.88;6314535;22;20006;-76
2021/03/17 10:32:22;;;;;;;2.58;1.08;;;;;;;14.52;49.94;102208.69;6285080;22;20003;-75
2021/03/17 10:34:48;;;;;;;2.45;0.82;;;;;;;14.55;50.43;102208.19;6313201;22;19999;-75
2021/03/17 10:37:19;;;;;;;5.97;1.65;;;;;;;14.61;49.28;102195.34;6286661;22;20019;-78
2021/03/17 10:39:54;;;;;;;5.78;1.90;;;;;;;14.67;48.30;102202.63;6288898;22;20007;-75
2021/03/17 10:42:29;;;;;;;6.32;1.25;;;;;;;14.92;48.57;102199.47;6313921;22;19999;-75
2021/03/17 10:45:05;;;;;;;6.07;1.17;;;;;;;15.17;48.13;102192.63;6313596;22;20044;-75
2021/03/17 10:47:34;;;;;;;5.95;1.42;;;;;;;15.25;48.55;102167.41;6308178;22;20003;-74
2021/03/17 10:50:00;;;;;;;7.25;2.08;;;;;;;15.43;46.16;102174.53;6288734;22;20033;-76
2021/03/17 10:52:45;;;;;;;3.72;1.83;;;;;;;15.53;45.93;102171.91;6313684;22;20373;-76
2021/03/17 10:55:15;;;;;;;3.25;1.27;;;;;;;15.61;46.23;102164.25;6315165;22;19999;-76
2021/03/17 10:57:40;;;;;;;6.63;2.15;;;;;;;15.77;45.72;102157.84;6313335;22;19995;-75
2021/03/17 11:00:27;;;;;;;9.57;2.55;;;;;;;15.86;45.40;102158.25;6313153;22;20096;-80
2021/03/17 11:02:54;;;;;;;1.40;0.95;;;;;;;15.73;45.95;102156.69;6311702;22;20042;-74
2021/03/17 11:05:20;;;;;;;3.67;1.90;;;;;;;15.79;45.27;102169.47;6312725;22;20007;-78
2021/03/17 11:08:00;;;;;;;1.58;1.15;;;;;;;15.81;45.99;102164.56;6303940;22;19999;-74
2021/03/17 11:10:52;;;;;;;8.02;2.60;;;;;;;15.78;44.90;102164.19;6309031;22;20007;-73
2021/03/17 11:13:17;;;;;;;6.18;1.38;;;;;;;15.50;45.05;102152.28;6309273;22;20007;-76
2021/03/17 11:15:45;;;;;;;6.85;2.00;;;;;;;15.31;45.16;102158.13;6311333;22;20007;-75
2021/03/17 11:18:27;;;;;;;4.65;1.48;;;;;;;15.10;45.54;102154.28;6282782;22;20022;-74
2021/03/17 11:21:02;;;;;;;11.25;2.40;;;;;;;14.77;44.96;102149.66;6312469;22;20010;-76
2021/03/17 11:23:34;;;;;;;3.07;2.00;;;;;;;14.46;44.82;102149.97;6313206;22;20010;-76
2021/03/17 11:26:01;;;;;;;4.82;1.77;;;;;;;14.30;45.30;102150.81;6309217;22;20663;-77
2021/03/17 11:28:37;;;;;;;1.83;1.23;;;;;;;14.17;46.24;102126.38;6314797;22;20011;-73
2021/03/17 11:31:06;;;;;;;7.97;2.17;;;;;;;14.10;46.17;102123.75;6289501;22;20007;-74
2021/03/17 11:33:32;;;;;;;3.38;1.27;;;;;;;14.00;46.42;102110.66;6315805;22;19999;-75
2021/03/17 11:36:01;;;;;;;6.15;2.53;;;;;;;14.05;45.90;102119.00;6279305;22;20368;-75
2021/03/17 11:38:27;;;;;;;5.47;1.25;;;;;;;13.93;46.05;102118.22;6283879;22;20003;-77
2021/03/17 11:40:54;;;;;;;2.97;1.45;;;;;;;13.88;46.07;102109.91;6287308;22;20003;-75